Time;durP1;ratioP1;P1;durP2;ratioP2;P2;SDS_P1;SDS_P2;PMS_P1;PMS_P2;Temp;Humidity;BMP_temperature;BMP_pressure;BME280_temperature;BME280_humidity;BME280_pressure;Samples;Min_cycle;Max_cycle;Signal;HPM_P1;HPM_P2
2022/06/16 00:01:55;;;;;;;9.60;3.10;;;;;;;-146.64;90.55;38253.22;5047027;28;20476;-79
2022/06/16 00:04:22;;;;;;;10.83;3.40;;;;;;;-146.64;90.79;38249.13;5050362;28;20029;-79
2022/06/16 00:06:47;;;;;;;7.65;3.30;;;;;;;-146.64;91.48;38249.13;5052032;28;20029;-80
2022/06/16 00:09:12;;;;;;;7.27;3.67;;;;;;;-146.64;91.84;38265.50;5070257;28;20035;-79
2022/06/16 00:11:38;;;;;;;8.83;2.87;;;;;;;-146.64;92.14;38232.78;5052639;28;20363;-79
2022/06/16 00:14:03;;;;;;;7.33;3.60;;;;;;;-146.64;92.00;38240.97;5068031;28;20535;-79
2022/06/16 00:16:29;;;;;;;5.80;3.60;;;;;;;-146.64;92.04;38269.59;5068078;28;20111;-79
2022/06/16 00:18:54;;;;;;;7.23;3.57;;;;;;;-146.64;92.60;38273.69;5036635;28;20112;-80
2022/06/16 00:21:19;;;;;;;7.00;3.37;;;;;;;-146.64;92.39;38232.78;5050938;28;20119;-79
2022/06/16 00:23:45;;;;;;;6.30;3.63;;;;;;;-146.64;92.89;38294.16;5053139;28;20055;-79
2022/06/16 00:26:19;;;;;;;11.50;3.70;;;;;;;-146.64;93.02;38310.53;5049366;28;20044;-80
2022/06/16 00:28:46;;;;;;;10.68;4.03;;;;;;;-146.64;93.24;38308.47;5052192;28;20036;-80
2022/06/16 00:31:12;;;;;;;11.00;3.78;;;;;;;-146.64;93.16;38290.06;5034026;28;20388;-80
2022/06/16 00:33:38;;;;;;;9.18;3.53;;;;;;;-146.64;94.53;38292.09;5066406;28;20024;-79
2022/06/16 00:36:04;;;;;;;5.75;3.30;;;;;;;-146.64;94.42;38314.63;5050463;28;20066;-79
2022/06/16 00:38:29;;;;;;;10.33;3.43;;;;;;;-146.64;95.08;38281.88;5051890;28;20036;-79
2022/06/16 00:40:55;;;;;;;5.63;3.77;;;;;;;-146.64;94.99;38298.25;5047772;28;20028;-79
2022/06/16 00:43:20;;;;;;;6.00;3.77;;;;;;;-146.64;95.13;38218.44;5034559;28;20101;-79
2022/06/16 00:46:01;;;;;;;6.83;3.77;;;;;;;-146.64;94.21;38318.72;5050312;28;20035;-79
2022/06/16 00:48:44;;;;;;;7.97;3.85;;;;;;;-146.64;95.17;38306.44;5035344;28;20407;-79
2022/06/16 00:51:27;;;;;;;9.07;3.78;;;;;;;-146.64;95.20;38359.63;5069592;28;20060;-79
2022/06/16 00:53:58;;;;;;;11.32;4.00;;;;;;;-146.64;95.07;38240.97;5042778;28;20399;-79
2022/06/16 00:56:23;;;;;;;10.93;3.70;;;;;;;-146.64;95.55;38314.63;5066731;28;20037;-79
2022/06/16 00:58:53;;;;;;;5.77;4.03;;;;;;;-146.64;96.27;38351.44;5050752;28;20381;-79
2022/06/16 01:01:20;;;;;;;6.05;3.60;;;;;;;-146.64;95.94;38353.50;5051726;28;20025;-80
2022/06/16 01:06:30;;;;;;;7.38;4.63;;;;;;;-146.64;95.91;38371.91;5053629;28;20043;-80
2022/06/16 01:09:05;;;;;;;6.53;4.30;;;;;;;-146.64;95.80;38363.72;5069184;28;20429;-79
2022/06/16 01:14:53;;;;;;;8.25;3.83;;;;;;;-146.64;95.51;38355.53;5064163;28;20464;-79
2022/06/16 01:17:55;;;;;;;11.70;4.28;;;;;;;-146.64;94.88;38355.53;5056231;28;20115;-79
2022/06/16 01:20:30;;;;;;;9.20;4.30;;;;;;;-146.64;96.23;38347.34;5040836;28;20032;-79
2022/06/16 01:23:06;;;;;;;6.18;3.95;;;;;;;-146.64;95.55;38396.47;5070353;28;20036;-79
2022/06/16 01:25:58;;;;;;;12.20;4.20;;;;;;;-146.64;95.83;38349.41;5047608;28;20341;-79
2022/06/16 01:28:28;;;;;;;8.63;4.00;;;;;;;-146.64;95.72;38433.28;5066250;28;20519;-79
2022/06/16 01:30:59;;;;;;;8.07;3.40;;;;;;;-146.64;96.04;38406.69;5052799;28;20480;-79
2022/06/16 01:33:35;;;;;;;6.47;3.67;;;;;;;-146.64;96.25;38449.66;5034905;28;20033;-79
2022/06/16 01:36:14;;;;;;;11.60;4.93;;;;;;;-146.64;95.85;38421.00;5066281;28;20067;-79
2022/06/16 01:38:46;;;;;;;7.78;4.07;;;;;;;-146.64;96.34;38429.19;5052287;28;20032;-79
2022/06/16 01:41:24;;;;;;;6.60;3.85;;;;;;;-146.64;96.69;38433.28;5068030;28;20036;-79
2022/06/16 01:44:26;;;;;;;9.68;4.10;;;;;;;-146.64;97.13;38425.09;5051006;28;20123;-80
2022/06/16 01:46:56;;;;;;;9.55;4.28;;;;;;;-146.64;96.70;38429.19;5064241;28;20127;-79
2022/06/16 01:49:25;;;;;;;5.25;3.90;;;;;;;-146.64;96.88;38441.47;5027885;28;20390;-79
2022/06/16 01:51:58;;;;;;;15.73;3.90;;;;;;;-146.64;97.11;38482.41;5050952;28;20461;-80
2022/06/16 01:54:26;;;;;;;6.55;3.70;;;;;;;-146.64;96.87;38457.84;5046309;28;20028;-80
2022/06/16 01:56:57;;;;;;;6.10;4.40;;;;;;;-146.64;96.48;38486.50;5052503;28;20099;-79
2022/06/16 01:59:26;;;;;;;10.48;3.88;;;;;;;-146.64;96.59;38478.31;5071566;28;20055;-80
2022/06/16 02:01:56;;;;;;;6.65;4.15;;;;;;;-146.64;96.95;38498.75;5059479;28;20060;-80
2022/06/16 02:04:28;;;;;;;7.25;4.40;;;;;;;-146.64;97.67;38455.78;5046345;28;20024;-79
2022/06/16 02:06:55;;;;;;;6.38;3.55;;;;;;;-146.64;98.29;38474.22;5055436;28;20046;-79
2022/06/16 02:09:25;;;;;;;8.48;4.30;;;;;;;-146.64;97.70;38470.13;5051105;28;20032;-80
2022/06/16 02:11:52;;;;;;;6.43;4.18;;;;;;;-146.64;97.50;38486.50;5042582;28;20465;-80
2022/06/16 02:14:29;;;;;;;7.78;4.32;;;;;;;-146.64;97.07;38519.22;5063252;28;20379;-79
2022/06/16 02:16:55;;;;;;;8.10;3.85;;;;;;;-146.64;97.78;38535.59;5035342;28;20040;-79
2022/06/16 02:19:22;;;;;;;11.10;4.07;;;;;;;-146.64;98.80;38486.50;5052527;28;20480;-79
2022/06/16 02:21:49;;;;;;;;;;;;;;;-146.64;98.83;38531.50;5043429;28;20488;-79
2022/06/16 02:24:19;;;;;;;9.27;4.68;;;;;;;-146.64;99.74;38529.47;5031886;28;20007;-79
2022/06/16 02:26:45;;;;;;;8.95;3.97;;;;;;;-146.64;100.00;38498.75;5033943;28;20040;-79
2022/06/16 02:29:20;;;;;;;8.33;3.80;;;;;;;-146.64;100.00;38517.19;5053591;28;20032;-80
2022/06/16 02:32:03;;;;;;;9.32;4.25;;;;;;;-146.64;100.00;38506.94;5072749;28;20107;-79
2022/06/16 02:34:43;;;;;;;7.78;3.78;;;;;;;-146.64;100.00;38498.75;5068462;28;20032;-79
2022/06/16 02:37:32;;;;;;;8.85;4.25;;;;;;;-146.64;100.00;38531.50;5059390;28;20039;-79
2022/06/16 02:40:34;;;;;;;6.72;3.80;;;;;;;-146.64;100.00;38513.09;5038313;28;20182;-79
2022/06/16 02:43:18;;;;;;;6.78;4.20;;;;;;;-146.64;100.00;38511.03;5049255;28;20112;-79
2022/06/16 02:46:03;;;;;;;13.07;4.38;;;;;;;-146.64;100.00;38506.94;5054049;28;20024;-78
2022/06/16 02:48:37;;;;;;;6.18;4.15;;;;;;;-146.64;100.00;38539.69;5054218;28;20051;-79
2022/06/16 02:51:19;;;;;;;13.02;4.03;;;;;;;-146.64;100.00;38537.66;5053785;28;20387;-79
2022/06/16 02:56:35;;;;;;;7.18;4.68;;;;;;;-146.64;100.00;38504.91;5067938;28;22101;-79
2022/06/16 02:59:20;;;;;;;8.70;3.95;;;;;;;-146.64;100.00;38560.16;5057633;28;20381;-78
2022/06/16 03:01:46;;;;;;;9.80;4.20;;;;;;;-146.64;100.00;38545.81;5045577;28;20029;-79
2022/06/16 03:04:17;;;;;;;8.00;4.03;;;;;;;-146.64;100.00;38533.56;5041196;28;20035;-79
2022/06/16 03:06:43;;;;;;;9.70;4.85;;;;;;;-146.64;100.00;38549.91;5054962;28;20044;-79
2022/06/16 03:09:09;;;;;;;17.08;5.43;;;;;;;-146.64;100.00;38570.38;5072695;28;20027;-79
2022/06/16 03:11:36;;;;;;;9.87;4.47;;;;;;;-146.64;100.00;38572.44;5037288;28;20025;-79
2022/06/16 03:14:02;;;;;;;7.10;4.10;;;;;;;-146.64;100.00;38523.31;5052477;28;20093;-79
2022/06/16 03:16:27;;;;;;;8.00;4.70;;;;;;;-146.64;100.00;38564.25;5053931;28;20025;-79
2022/06/16 03:18:53;;;;;;;11.17;4.23;;;;;;;-146.64;100.00;38535.59;5068984;28;20046;-79
2022/06/16 03:21:18;;;;;;;7.20;4.17;;;;;;;-146.64;100.00;38566.28;5053076;28;20052;-79
2022/06/16 03:23:44;;;;;;;12.27;4.53;;;;;;;-146.64;100.00;38549.91;5053071;28;20086;-79
2022/06/16 03:26:09;;;;;;;10.57;4.97;;;;;;;-146.64;100.00;38568.34;5034209;28;20111;-79
2022/06/16 03:28:35;;;;;;;8.43;4.80;;;;;;;-146.64;100.00;38523.31;5068588;28;20095;-79
2022/06/16 03:31:00;;;;;;;10.37;4.37;;;;;;;-146.64;100.00;38515.13;5058176;28;20036;-78
2022/06/16 03:33:28;;;;;;;7.03;4.33;;;;;;;-146.64;100.00;38521.28;5034410;28;20024;-80
2022/06/16 03:35:54;;;;;;;8.70;4.60;;;;;;;-146.64;100.00;38554.00;5034321;28;20507;-78
2022/06/16 03:41:03;;;;;;;7.72;5.38;;;;;;;-146.64;100.00;38519.22;5050768;28;20047;-80
2022/06/16 03:43:30;;;;;;;6.80;3.83;;;;;;;-146.64;100.00;38584.72;5061790;28;20431;-79
2022/06/16 03:45:55;;;;;;;8.63;5.17;;;;;;;-146.64;100.00;38574.47;5068840;28;20138;-79
2022/06/16 03:48:21;;;;;;;8.40;4.83;;;;;;;-146.64;100.00;38568.34;5036619;28;20028;-79
2022/06/16 03:50:46;;;;;;;6.37;4.63;;;;;;;-146.64;100.00;38556.06;5036350;28;20589;-79
2022/06/16 03:53:12;;;;;;;9.77;4.60;;;;;;;-146.64;100.00;38584.72;5071162;28;20028;-79
2022/06/16 03:55:37;;;;;;;7.37;4.57;;;;;;;-146.64;100.00;38623.59;5032890;28;20495;-78
2022/06/16 03:58:02;;;;;;;10.27;4.50;;;;;;;-146.64;100.00;38672.69;5047859;28;20031;-79
2022/06/16 04:00:28;;;;;;;7.13;5.03;;;;;;;-146.64;100.00;38609.25;5052140;28;20028;-80
2022/06/16 04:05:38;;;;;;;7.35;4.20;;;;;;;-146.64;100.00;38621.53;5068997;28;20035;-80
2022/06/16 04:08:04;;;;;;;13.18;4.40;;;;;;;-146.64;100.00;38644.03;5052788;28;20028;-79
2022/06/16 04:10:29;;;;;;;9.17;4.10;;;;;;;-146.64;100.00;38646.09;5040378;28;20465;-79
2022/06/16 04:12:55;;;;;;;7.23;3.93;;;;;;;-146.64;100.00;38648.13;5051800;28;20021;-79
2022/06/16 04:15:20;;;;;;;9.77;4.67;;;;;;;-146.64;100.00;38611.31;5050755;28;20032;-80
2022/06/16 04:17:45;;;;;;;10.47;4.67;;;;;;;-146.64;100.00;38531.50;5067939;28;20040;-80
2022/06/16 04:20:14;;;;;;;10.03;4.73;;;;;;;-146.64;100.00;38588.81;5064798;28;20070;-79
2022/06/16 04:22:41;;;;;;;9.02;4.20;;;;;;;-146.64;100.00;38549.91;5049343;28;20112;-79
2022/06/16 04:25:09;;;;;;;8.90;4.75;;;;;;;-146.64;100.00;38527.41;5048279;28;20043;-80
2022/06/16 04:27:34;;;;;;;6.93;3.95;;;;;;;-146.64;100.00;38502.84;5052292;28;20037;-79
2022/06/16 04:30:03;;;;;;;6.33;4.30;;;;;;;-146.64;100.00;38504.91;5065434;28;20033;-79
2022/06/16 04:32:28;;;;;;;6.25;3.42;;;;;;;-146.64;100.00;38445.56;5052266;28;20020;-79
2022/06/16 04:34:54;;;;;;;10.30;4.07;;;;;;;-146.64;100.00;38431.25;5048775;28;20032;-79
2022/06/16 04:37:19;;;;;;;6.40;3.83;;;;;;;-146.64;100.00;38459.88;5051080;28;20025;-80
2022/06/16 04:39:45;;;;;;;8.57;3.93;;;;;;;-146.64;100.00;38478.31;5035252;28;20027;-80
2022/06/16 04:42:10;;;;;;;7.50;4.40;;;;;;;-146.64;100.00;38431.25;5052336;28;20460;-79
2022/06/16 04:44:40;;;;;;;8.37;4.43;;;;;;;-146.64;100.00;38429.19;5045827;28;20037;-80
2022/06/16 04:47:07;;;;;;;10.27;4.15;;;;;;;-146.64;99.84;38359.63;5027550;28;20028;-81
2022/06/16 04:49:33;;;;;;;11.80;4.05;;;;;;;-146.64;99.38;38461.94;5052427;28;20121;-81
2022/06/16 04:51:59;;;;;;;;;;;;;;;-146.64;99.62;38461.94;5040995;28;20483;-80
2022/06/16 04:54:25;;;;;;;7.38;3.90;;;;;;;-146.64;99.48;38457.84;5042144;28;19924;-82
2022/06/16 04:56:51;;;;;;;5.40;3.97;;;;;;;-146.64;99.14;38445.56;5052004;28;20043;-82
2022/06/16 04:59:16;;;;;;;11.70;4.90;;;;;;;-146.64;98.89;38433.28;5052358;28;20036;-79
2022/06/16 05:01:41;;;;;;;10.90;5.67;;;;;;;-146.64;98.35;38421.00;5068555;28;20032;-80
2022/06/16 05:04:07;;;;;;;18.47;5.07;;;;;;;-146.64;97.77;38453.75;5035789;28;20032;-80
2022/06/16 05:06:32;;;;;;;6.60;4.20;;;;;;;-146.64;98.52;38386.22;5051856;28;20025;-80
2022/06/16 05:08:58;;;;;;;11.30;4.27;;;;;;;-146.64;96.11;38392.38;5050359;28;20033;-81
2022/06/16 05:11:23;;;;;;;9.57;4.07;;;;;;;-146.64;93.70;38257.31;5067216;28;20456;-81
2022/06/16 05:13:49;;;;;;;12.43;4.00;;;;;;;-146.64;91.13;38285.97;5051423;28;20032;-80
2022/06/16 05:16:14;;;;;;;6.27;3.60;;;;;;;-146.64;85.38;38110.00;5035471;28;20040;-80
2022/06/16 05:18:39;;;;;;;7.10;3.37;;;;;;;-146.64;80.90;38042.50;5049163;28;20039;-81
2022/06/16 05:21:07;;;;;;;10.97;3.50;;;;;;;-146.64;77.37;37815.41;5048698;28;20170;-80
2022/06/16 05:23:34;;;;;;;7.03;3.13;;;;;;;-146.64;74.25;37668.09;5048619;28;20033;-81
2022/06/16 05:25:59;;;;;;;;;;;;;;;-146.64;73.40;37541.28;5047930;28;20407;-78
2022/06/16 05:28:28;;;;;;;7.53;2.93;;;;;;;-146.64;67.77;37244.66;5050312;28;19916;-81
2022/06/16 05:30:53;;;;;;;10.32;3.55;;;;;;;-146.64;65.78;37175.13;5035036;28;20350;-78
2022/06/16 05:33:19;;;;;;;8.13;3.40;;;;;;;-146.64;64.22;37308.06;5067809;28;20029;-81
2022/06/16 05:36:07;;;;;;;5.90;2.73;;;;;;;-146.64;66.14;37308.06;5054018;28;20016;-79
2022/06/16 05:38:36;;;;;;;6.65;2.85;;;;;;;-146.64;65.68;37471.72;5054616;28;20090;-81
2022/06/16 05:41:10;;;;;;;8.05;2.60;;;;;;;-146.64;68.52;37713.13;5067286;28;20024;-81
2022/06/16 05:43:36;;;;;;;7.88;3.03;;;;;;;-146.64;68.93;37651.75;5033607;28;20129;-80
2022/06/16 05:46:01;;;;;;;6.40;2.72;;;;;;;-146.64;66.65;37582.19;5053696;28;20103;-79
2022/06/16 05:48:27;;;;;;;5.37;2.47;;;;;;;-146.64;67.19;37772.44;5065390;28;20505;-80
2022/06/16 05:50:52;;;;;;;3.20;2.63;;;;;;;-146.64;66.76;37287.63;5025706;28;20125;-78
2022/06/16 05:53:18;;;;;;;5.73;2.90;;;;;;;-146.64;64.17;37324.44;5059596;28;20668;-80
2022/06/16 05:55:44;;;;;;;8.23;3.20;;;;;;;-146.64;61.74;36972.63;5071938;28;20024;-80
2022/06/16 05:58:09;;;;;;;6.78;3.03;;;;;;;-146.64;58.87;36943.97;5071897;28;20535;-80
2022/06/16 06:00:35;;;;;;;4.37;2.70;;;;;;;-146.64;56.61;36776.25;5052271;28;20029;-80
2022/06/16 06:03:01;;;;;;;4.95;2.65;;;;;;;-146.64;57.31;36837.63;5070744;28;20115;-80
2022/06/16 06:05:27;;;;;;;5.18;2.58;;;;;;;-146.64;54.09;36741.50;5049003;28;20154;-81
2022/06/16 06:16:25;;;;;;;7.10;2.47;;;;;;;-146.64;51.15;36698.53;5051320;28;20093;-81
2022/06/16 06:18:51;;;;;;;3.42;2.17;;;;;;;-146.64;50.46;36447.00;5037327;28;20024;-79
2022/06/16 06:21:16;;;;;;;6.28;2.50;;;;;;;-146.64;50.61;36475.63;5044187;28;20021;-79
2022/06/16 06:23:41;;;;;;;5.18;2.10;;;;;;;-146.64;49.67;36404.03;5033941;28;20032;-79
2022/06/16 06:26:06;;;;;;;;;;;;;;;-146.64;48.58;36424.50;5040978;28;20064;-79
2022/06/16 06:28:32;;;;;;;3.53;2.10;;;;;;;-146.64;47.09;36567.66;5047641;28;19920;-79
2022/06/16 06:30:57;;;;;;;6.07;2.30;;;;;;;-146.64;47.55;36420.41;5033819;28;20292;-79
2022/06/16 06:33:22;;;;;;;5.50;2.20;;;;;;;-146.64;47.98;36068.66;5050814;28;20287;-79
2022/06/16 06:35:48;;;;;;;;;;;;;;;-146.64;46.08;36348.81;5051026;28;20024;-79
2022/06/16 06:38:14;;;;;;;5.50;2.47;;;;;;;-146.64;46.94;36418.34;5049289;28;19916;-80
2022/06/16 06:40:39;;;;;;;;;;;;;;;-146.64;47.06;35954.16;5065855;28;20289;-80
2022/06/16 06:43:05;;;;;;;4.78;2.25;;;;;;;-146.64;44.86;36146.38;5048769;28;19924;-80
2022/06/16 06:45:31;;;;;;;3.97;2.05;;;;;;;-146.64;45.03;36038.00;5051973;28;20491;-78
2022/06/16 06:47:57;;;;;;;15.05;3.03;;;;;;;-146.64;44.12;35929.63;5048847;28;20036;-80
2022/06/16 06:50:28;;;;;;;4.20;1.90;;;;;;;-146.64;44.90;35905.06;5063467;28;20035;-79
2022/06/16 06:52:54;;;;;;;3.13;1.83;;;;;;;-146.64;44.28;35884.63;5036237;28;20024;-78
2022/06/16 06:55:20;;;;;;;4.20;2.00;;;;;;;-146.64;43.14;36130.00;5047896;28;20078;-78
2022/06/16 06:57:45;;;;;;;;;;;;;;;-146.64;42.96;36080.94;5046297;28;20033;-77
2022/06/16 07:00:13;;;;;;;4.78;2.10;;;;;;;-146.64;43.55;36068.66;5045127;28;19924;-78
2022/06/16 07:02:39;;;;;;;5.60;2.17;;;;;;;-146.64;42.21;36040.03;5051653;28;20759;-78
2022/06/16 07:05:04;;;;;;;8.40;2.17;;;;;;;-146.64;43.49;36056.41;5068139;28;20039;-78
2022/06/16 07:07:32;;;;;;;4.28;2.05;;;;;;;-146.64;44.15;36089.13;5049581;28;20036;-79
2022/06/16 07:09:58;;;;;;;6.60;2.10;;;;;;;-146.64;43.47;36156.59;5048021;28;20064;-78
2022/06/16 07:12:23;;;;;;;6.80;1.87;;;;;;;-146.64;42.57;36164.78;5039605;28;20526;-79
2022/06/16 07:14:50;;;;;;;3.47;1.92;;;;;;;-146.64;42.73;36146.38;5061169;28;20473;-78
2022/06/16 07:17:18;;;;;;;2.50;1.60;;;;;;;-146.64;42.75;36222.03;5067485;28;20020;-78
2022/06/16 07:19:43;;;;;;;2.90;2.00;;;;;;;-146.64;43.21;36330.41;5068844;28;20027;-78
2022/06/16 07:22:09;;;;;;;8.13;2.73;;;;;;;-146.64;42.32;36467.44;5069249;28;20104;-76
2022/06/16 07:24:34;;;;;;;4.65;2.10;;;;;;;-146.64;41.91;36481.75;5051682;28;20029;-77
2022/06/16 07:27:01;;;;;;;4.33;2.50;;;;;;;-146.64;43.85;36477.66;5070617;28;20036;-78
2022/06/16 07:29:26;;;;;;;5.78;2.13;;;;;;;-146.64;42.13;36402.00;5039198;28;20278;-79
2022/06/16 07:31:52;;;;;;;4.03;2.08;;;;;;;-146.64;43.13;36256.81;5047925;28;20050;-78
2022/06/16 07:34:17;;;;;;;7.82;2.60;;;;;;;-146.64;43.09;36082.97;5047074;28;20025;-77
2022/06/16 07:36:43;;;;;;;12.63;2.40;;;;;;;-146.64;43.42;36027.75;5066111;28;20108;-77
2022/06/16 07:39:08;;;;;;;3.97;1.80;;;;;;;-146.64;42.67;36179.09;5067532;28;20082;-78
2022/06/16 07:41:36;;;;;;;3.70;1.92;;;;;;;-146.64;42.40;36264.97;5031792;28;20115;-78
2022/06/16 07:44:08;;;;;;;7.85;2.38;;;;;;;-146.64;42.95;36518.56;5049173;28;20048;-78
2022/06/16 07:46:34;;;;;;;4.07;2.20;;;;;;;-146.64;43.84;36506.31;5049223;28;20321;-77
2022/06/16 07:48:59;;;;;;;5.63;2.00;;;;;;;-146.64;44.35;36475.63;5067036;28;20365;-77
2022/06/16 07:51:25;;;;;;;5.60;2.17;;;;;;;-146.64;44.44;36588.09;5050820;28;20060;-77
2022/06/16 07:53:50;;;;;;;5.03;1.73;;;;;;;-146.64;43.98;36624.91;5050420;28;20103;-77
2022/06/16 07:56:20;;;;;;;4.57;2.00;;;;;;;-146.64;43.67;36575.84;5047556;28;20032;-78
2022/06/16 07:58:45;;;;;;;6.57;2.50;;;;;;;-146.64;44.48;36635.16;5065046;28;20048;-79
2022/06/16 08:01:11;;;;;;;3.73;2.33;;;;;;;-146.64;44.58;36567.66;5065667;28;20127;-80
2022/06/16 08:03:37;;;;;;;8.15;2.28;;;;;;;-146.64;44.95;36688.31;5064622;28;20071;-78
2022/06/16 08:06:07;;;;;;;5.65;2.53;;;;;;;-146.64;44.95;36833.53;5044237;28;20028;-79
2022/06/16 08:08:32;;;;;;;9.18;2.15;;;;;;;-146.64;45.48;36680.13;5069666;28;20040;-79
2022/06/16 08:10:58;;;;;;;2.83;1.90;;;;;;;-146.64;44.83;36696.50;5050997;28;20411;-78
2022/06/16 08:13:26;;;;;;;2.73;1.90;;;;;;;-146.64;43.93;36835.59;5048967;28;20105;-80
2022/06/16 08:15:57;;;;;;;5.70;2.13;;;;;;;-146.64;44.53;36948.06;5127206;27;20126;-74
2022/06/16 08:18:24;;;;;;;8.45;2.67;;;;;;;-146.64;45.34;36747.63;5107993;28;20502;-74
2022/06/16 08:20:50;;;;;;;5.97;2.20;;;;;;;-146.64;46.09;36813.09;5099694;28;20035;-72
2022/06/16 08:23:16;;;;;;;;;;;;;;;-146.64;46.99;36645.38;5098665;28;20035;-75
2022/06/16 08:25:42;;;;;;;4.15;2.22;;;;;;;-146.64;44.79;36772.19;5111335;28;19922;-74
2022/06/16 08:28:09;;;;;;;7.22;2.28;;;;;;;-146.64;46.67;36921.47;5075593;28;20024;-73
2022/06/16 08:30:34;;;;;;;;;;;;;;;-146.64;45.36;36974.66;5105891;28;20040;-74
2022/06/16 08:33:02;;;;;;;4.55;1.77;;;;;;;-146.64;46.84;36929.66;5104594;28;20282;-74
2022/06/16 08:35:27;;;;;;;4.95;1.92;;;;;;;-146.64;46.42;36841.72;5089266;28;20058;-74
2022/06/16 08:37:53;;;;;;;6.50;1.95;;;;;;;-146.64;45.37;36911.25;5082336;28;20051;-73
2022/06/16 08:40:20;;;;;;;4.80;2.57;;;;;;;-146.64;44.66;36868.31;5087138;28;20042;-71
2022/06/16 08:42:52;;;;;;;3.15;2.03;;;;;;;-146.64;46.61;36706.72;5088202;28;20036;-71
2022/06/16 08:45:28;;;;;;;3.88;1.67;;;;;;;-146.64;46.54;36712.88;5092471;28;22284;-73
2022/06/16 08:48:16;;;;;;;4.40;2.10;;;;;;;-146.64;45.57;36903.06;5091653;28;20496;-73
2022/06/16 08:51:12;;;;;;;8.05;2.38;;;;;;;-146.64;45.95;37128.06;5104989;28;20106;-73
2022/06/16 08:53:52;;;;;;;4.32;2.08;;;;;;;-146.64;46.53;36968.53;5101232;28;20119;-73
2022/06/16 08:56:35;;;;;;;5.50;2.03;;;;;;;-146.64;47.77;36631.06;5105684;28;20028;-73
2022/06/16 08:59:23;;;;;;;5.55;2.15;;;;;;;-146.64;45.35;36653.56;5086975;28;20081;-74
2022/06/16 09:01:54;;;;;;;4.03;1.95;;;;;;;-146.64;46.31;36923.53;5087679;28;20062;-73
2022/06/16 09:04:24;;;;;;;3.78;2.20;;;;;;;-146.64;46.44;36825.34;5086801;28;20093;-74
2022/06/16 09:07:06;;;;;;;6.15;2.45;;;;;;;-146.64;45.83;36874.44;5086622;28;20551;-73
2022/06/16 09:13:05;;;;;;;7.00;2.25;;;;;;;-146.64;44.73;36764.00;5103212;28;20085;-73
2022/06/16 09:15:46;;;;;;;5.85;2.47;;;;;;;-146.64;46.50;36702.63;5116329;28;20068;-73
2022/06/16 09:18:33;;;;;;;14.18;2.40;;;;;;;-146.64;46.14;36649.47;5121236;28;20031;-73
2022/06/16 09:21:20;;;;;;;5.57;2.15;;;;;;;-146.64;45.86;36629.00;5086901;28;20038;-74
2022/06/16 09:24:03;;;;;;;3.20;1.92;;;;;;;-146.64;45.75;36624.91;5122793;28;20035;-73
2022/06/16 09:26:49;;;;;;;5.40;2.53;;;;;;;-146.64;45.61;36567.66;5077026;28;20036;-73
2022/06/16 09:29:24;;;;;;;11.10;2.65;;;;;;;-146.64;45.48;36624.91;5078707;28;20020;-73
2022/06/16 09:32:12;;;;;;;2.85;1.73;;;;;;;-146.64;45.65;36692.41;5075163;28;20074;-74
2022/06/16 09:34:44;;;;;;;6.00;2.67;;;;;;;-146.64;46.62;36453.13;5091559;28;20028;-73
2022/06/16 09:37:14;;;;;;;12.30;2.60;;;;;;;-146.64;45.85;36596.28;5093921;28;20039;-73
2022/06/16 09:39:43;;;;;;;11.38;2.55;;;;;;;-146.64;46.44;36547.19;5064756;28;20061;-73
2022/06/16 09:42:32;;;;;;;5.07;2.22;;;;;;;-146.64;45.65;36510.38;5093572;28;20111;-73
2022/06/16 09:45:10;;;;;;;5.80;2.35;;;;;;;-146.64;46.04;36297.69;5090544;28;20035;-74
2022/06/16 09:48:00;;;;;;;4.85;2.40;;;;;;;-146.64;46.58;36203.63;5091838;28;20032;-74
2022/06/16 09:50:38;;;;;;;4.60;2.20;;;;;;;-146.64;45.15;36494.03;5093310;28;20044;-73
2022/06/16 09:53:11;;;;;;;8.60;1.85;;;;;;;-146.64;46.26;36248.63;5070522;28;20024;-73
2022/06/16 09:55:40;;;;;;;4.50;1.98;;;;;;;-146.64;46.33;36305.88;5081030;28;20391;-73
2022/06/16 09:58:15;;;;;;;3.35;2.20;;;;;;;-146.64;45.73;36395.88;5100354;28;20047;-74
2022/06/16 10:00:40;;;;;;;4.57;2.10;;;;;;;-146.64;45.23;36389.72;5083369;28;20038;-73
2022/06/16 10:03:43;;;;;;;6.43;2.30;;;;;;;-146.64;45.59;36444.94;5093643;28;20035;-74
2022/06/16 10:06:27;;;;;;;7.28;2.00;;;;;;;-146.64;46.02;36138.19;5074442;28;20284;-74
2022/06/16 10:08:55;;;;;;;10.57;2.55;;;;;;;-146.64;45.83;36103.44;5106180;28;20039;-74
2022/06/16 10:11:37;;;;;;;3.20;2.10;;;;;;;-146.64;44.49;36007.31;5074200;28;20036;-74
2022/06/16 10:14:14;;;;;;;5.50;3.38;;;;;;;-146.64;44.52;35986.88;5105472;28;20067;-73
2022/06/16 10:16:49;;;;;;;7.80;2.30;;;;;;;-146.64;43.16;36195.44;5091701;28;20487;-74
2022/06/16 10:19:14;;;;;;;6.22;2.20;;;;;;;-146.64;44.20;36064.56;5092132;28;20103;-74
2022/06/16 10:21:40;;;;;;;10.17;3.10;;;;;;;-146.64;43.46;36168.88;5092475;28;20031;-74
2022/06/16 10:24:07;;;;;;;6.93;2.40;;;;;;;-146.64;43.88;36175.00;5091318;28;20501;-74
2022/06/16 10:26:34;;;;;;;7.40;2.70;;;;;;;-146.64;43.87;36211.81;5093095;28;20031;-75
2022/06/16 10:29:06;;;;;;;4.95;2.65;;;;;;;-146.64;43.73;36191.34;5111955;28;20027;-74
2022/06/16 10:31:45;;;;;;;13.20;2.20;;;;;;;-146.64;44.21;36130.00;5083316;28;20061;-74
2022/06/16 10:34:29;;;;;;;3.60;2.08;;;;;;;-146.64;45.19;35800.78;5073218;28;20035;-74
2022/06/16 10:37:14;;;;;;;5.50;2.35;;;;;;;-146.64;43.73;36011.41;5109552;28;20459;-75
2022/06/16 10:39:47;;;;;;;3.35;1.77;;;;;;;-146.64;44.43;35911.22;5092728;28;20041;-74
2022/06/16 10:42:18;;;;;;;5.60;2.53;;;;;;;-146.64;42.40;35892.81;5092898;28;20084;-75
2022/06/16 10:44:50;;;;;;;7.07;2.00;;;;;;;-146.64;42.46;35827.38;5090792;28;20034;-74
2022/06/16 10:47:22;;;;;;;5.38;2.15;;;;;;;-146.64;42.73;35890.75;5089342;28;20023;-74
2022/06/16 10:49:48;;;;;;;7.53;2.30;;;;;;;-146.64;44.21;35545.19;5098741;28;20453;-75
2022/06/16 10:52:22;;;;;;;4.85;2.00;;;;;;;-146.64;42.59;35686.28;5131602;28;20106;-74
2022/06/16 10:55:08;;;;;;;6.20;2.20;;;;;;;-146.64;43.55;35635.16;5100835;28;20045;-74
2022/06/16 10:57:41;;;;;;;6.15;2.00;;;;;;;-146.64;44.26;35661.75;5110929;28;20039;-74
2022/06/16 11:00:13;;;;;;;10.18;3.28;;;;;;;-146.64;42.35;35455.25;5091938;28;20055;-74
2022/06/16 11:02:54;;;;;;;8.00;2.80;;;;;;;-146.64;42.30;35557.47;5110615;28;20151;-74
2022/06/16 11:05:20;;;;;;;4.13;2.28;;;;;;;-146.64;42.88;35451.16;5080305;28;20038;-75
2022/06/16 11:07:45;;;;;;;5.00;2.27;;;;;;;-146.64;43.13;35508.41;5079347;28;20424;-74
2022/06/16 11:10:14;;;;;;;7.25;2.55;;;;;;;-146.64;43.18;35438.88;5091921;28;20534;-74
2022/06/16 11:12:41;;;;;;;3.97;2.10;;;;;;;-146.64;43.23;35455.25;5091152;28;20028;-74
2022/06/16 11:15:18;;;;;;;4.53;2.25;;;;;;;-146.64;42.52;35383.69;5075659;28;20561;-74
2022/06/16 11:17:49;;;;;;;6.13;2.28;;;;;;;-146.64;41.70;35463.41;5075157;28;20046;-74
2022/06/16 11:20:22;;;;;;;4.55;2.67;;;;;;;-146.64;41.82;35508.41;5075500;28;20105;-74
2022/06/16 11:22:50;;;;;;;7.90;2.70;;;;;;;-146.64;42.16;35261.00;5074307;28;20542;-75
2022/06/16 11:25:15;;;;;;;4.50;2.08;;;;;;;-146.64;41.10;35510.44;5092325;28;20479;-74
2022/06/16 11:27:45;;;;;;;7.27;2.10;;;;;;;-146.64;43.42;35565.66;5110319;28;20032;-74
2022/06/16 11:30:30;;;;;;;6.70;2.75;;;;;;;-146.64;43.63;35299.84;5092073;28;20127;-74
2022/06/16 11:32:56;;;;;;;6.47;2.55;;;;;;;-146.64;42.51;35631.06;5110644;28;20030;-74
2022/06/16 11:35:27;;;;;;;9.57;2.10;;;;;;;-146.64;41.64;35449.09;5110299;28;20040;-74
2022/06/16 11:38:05;;;;;;;5.90;1.75;;;;;;;-146.64;41.46;35269.19;5092438;28;20444;-74
2022/06/16 11:40:36;;;;;;;5.43;2.15;;;;;;;-146.64;41.17;35340.75;5078442;28;20031;-74
2022/06/16 11:43:33;;;;;;;2.97;1.80;;;;;;;-146.64;41.43;35438.88;5092170;28;20035;-75
2022/06/16 11:46:08;;;;;;;4.20;2.05;;;;;;;-146.64;41.54;35504.31;5071921;28;20491;-74
2022/06/16 11:48:43;;;;;;;5.05;2.38;;;;;;;-146.64;42.68;35406.16;5071464;28;20032;-74
2022/06/16 11:51:15;;;;;;;8.77;2.58;;;;;;;-146.64;42.25;35477.72;5089917;28;20028;-75
2022/06/16 11:54:14;;;;;;;6.45;3.05;;;;;;;-146.64;41.59;35400.03;5071331;28;20509;-74
2022/06/16 11:56:43;;;;;;;8.45;2.75;;;;;;;-146.64;41.56;35530.88;5100939;28;20043;-75
2022/06/16 11:59:30;;;;;;;5.85;2.75;;;;;;;-146.64;42.41;35160.84;5054808;28;20058;-74